Time;durP1;ratioP1;P1;durP2;ratioP2;P2;SDS_P1;SDS_P2;PMS_P1;PMS_P2;Temp;Humidity;BMP_temperature;BMP_pressure;BME280_temperature;BME280_humidity;BME280_pressure;Samples;Min_cycle;Max_cycle;Signal;HPM_P1;HPM_P2
2022/09/11 00:00:39;;;;;;;;;;;20.50;55.70;;;;;;6245862;22;19911;-87
2022/09/11 00:03:04;;;;;;;;;;;20.50;55.40;;;;;;6244999;22;20239;-87
2022/09/11 00:05:30;;;;;;;;;;;20.40;55.30;;;;;;6242823;23;19904;-88
2022/09/11 00:07:56;;;;;;;;;;;20.40;55.20;;;;;;6244455;22;19918;-87
2022/09/11 00:10:23;;;;;;;;;;;20.30;55.10;;;;;;6246696;22;19911;-88
2022/09/11 00:12:49;;;;;;;;;;;20.20;55.10;;;;;;6242523;22;20465;-91
2022/09/11 00:15:15;;;;;;;;;;;20.10;55.10;;;;;;6243230;23;19903;-86
2022/09/11 00:17:40;;;;;;;;;;;20.00;55.10;;;;;;6245801;22;19942;-85
2022/09/11 00:20:06;;;;;;;;;;;20.00;55.00;;;;;;6241967;23;20315;-88
2022/09/11 00:22:31;;;;;;;;;;;19.90;55.00;;;;;;6244073;23;19907;-90
2022/09/11 00:24:58;;;;;;;;;;;19.80;55.10;;;;;;6244724;22;19923;-87
2022/09/11 00:27:23;;;;;;;;;;;19.80;55.20;;;;;;6245863;23;19957;-87
2022/09/11 00:29:49;;;;;;;;;;;19.70;55.20;;;;;;6246670;22;19947;-90
2022/09/11 00:32:14;;;;;;;;;;;19.70;55.40;;;;;;6242404;23;19907;-88
2022/09/11 00:34:40;;;;;;;;;;;19.60;55.50;;;;;;6245153;22;19908;-87
2022/09/11 00:37:06;;;;;;;;;;;19.60;56.00;;;;;;6247009;23;19908;-84
2022/09/11 00:39:31;;;;;;;;;;;19.50;56.20;;;;;;6242184;22;19978;-89
2022/09/11 00:41:57;;;;;;;;;;;19.60;56.60;;;;;;6245241;23;19908;-91
2022/09/11 00:44:23;;;;;;;;;;;19.50;56.50;;;;;;6242540;22;19911;-88
2022/09/11 00:46:50;;;;;;;;;;;19.50;56.40;;;;;;6243148;23;20239;-92
2022/09/11 00:49:25;;;;;;;;;;;19.50;56.50;;;;;;6245328;22;19950;-91
2022/09/11 00:51:52;;;;;;;;;;;19.50;56.40;;;;;;6248846;22;19907;-88
2022/09/11 00:54:19;;;;;;;;;;;19.40;56.30;;;;;;6243954;22;20271;-87
2022/09/11 00:56:46;;;;;;;;;;;19.50;56.20;;;;;;6243178;22;19908;-84
2022/09/11 00:59:12;;;;;;;;;;;19.40;56.20;;;;;;6241822;22;19903;-87
2022/09/11 01:01:38;;;;;;;;;;;19.40;56.30;;;;;;6244448;22;19912;-91
2022/09/11 01:04:05;;;;;;;;;;;19.30;56.10;;;;;;6243378;22;19916;-84
2022/09/11 01:06:31;;;;;;;;;;;19.30;56.10;;;;;;6267392;22;19914;-87
2022/09/11 01:08:58;;;;;;;;;;;19.30;56.10;;;;;;6244172;22;19915;-90
2022/09/11 01:11:23;;;;;;;;;;;19.20;56.20;;;;;;6242842;23;19918;-86
2022/09/11 01:14:01;;;;;;;;;;;19.20;56.10;;;;;;6243091;22;19911;-92
2022/09/11 01:16:38;;;;;;;;;;;19.20;56.00;;;;;;6243108;23;19982;-88
2022/09/11 01:19:29;;;;;;;;;;;19.10;56.40;;;;;;6243689;22;19915;-92
2022/09/11 01:22:00;;;;;;;;;;;19.00;56.40;;;;;;6243965;22;19915;-91
2022/09/11 01:24:34;;;;;;;;;;;19.00;56.40;;;;;;6243038;22;19912;-88
2022/09/11 01:27:09;;;;;;;;;;;19.00;56.50;;;;;;6243422;22;19915;-84
2022/09/11 01:29:46;;;;;;;;;;;18.90;56.40;;;;;;6242601;22;19915;-88
2022/09/11 01:32:18;;;;;;;;;;;18.90;56.50;;;;;;6244530;22;19908;-88
2022/09/11 01:34:44;;;;;;;;;;;18.90;56.60;;;;;;6244282;22;19911;-92
2022/09/11 01:37:13;;;;;;;;;;;19.00;56.50;;;;;;6241593;23;19908;-91
2022/09/11 01:39:45;;;;;;;;;;;19.00;56.60;;;;;;6241547;22;19915;-86
2022/09/11 01:42:13;;;;;;;;;;;19.00;56.60;;;;;;6241907;23;19908;-84
2022/09/11 01:44:50;;;;;;;;;;;19.10;56.70;;;;;;6242043;22;20390;-85
2022/09/11 01:47:16;;;;;;;;;;;19.10;57.00;;;;;;6245001;22;19954;-87
2022/09/11 01:49:46;;;;;;;;;;;19.20;57.40;;;;;;6243310;22;19908;-90
2022/09/11 01:52:15;;;;;;;;;;;19.20;57.60;;;;;;6243905;22;19914;-89
2022/09/11 01:54:44;;;;;;;;;;;19.30;57.40;;;;;;6243240;22;19908;-90
2022/09/11 01:57:25;;;;;;;;;;;19.40;57.80;;;;;;6243724;22;19908;-93
2022/09/11 01:59:52;;;;;;;;;;;19.50;57.60;;;;;;6246423;22;19993;-87
2022/09/11 02:02:21;;;;;;;;;;;19.60;57.50;;;;;;6242210;23;19962;-89
2022/09/11 02:04:48;;;;;;;;;;;19.70;57.40;;;;;;6243228;22;20332;-91
2022/09/11 02:07:20;;;;;;;;;;;19.80;57.30;;;;;;6242915;22;19977;-87
2022/09/11 02:09:50;;;;;;;;;;;19.90;57.30;;;;;;6245877;22;20386;-91
2022/09/11 02:12:17;;;;;;;;;;;20.00;57.20;;;;;;6242901;23;19969;-86
2022/09/11 02:14:47;;;;;;;;;;;20.10;57.10;;;;;;6242519;22;19946;-85
2022/09/11 02:17:26;;;;;;;;;;;20.20;57.10;;;;;;6246013;22;19907;-88
2022/09/11 02:19:52;;;;;;;;;;;20.20;57.20;;;;;;6241238;22;19923;-87
2022/09/11 02:22:18;;;;;;;;;;;20.20;57.10;;;;;;6243144;22;19911;-88
2022/09/11 02:24:43;;;;;;;;;;;20.20;57.30;;;;;;6242182;22;20025;-91
2022/09/11 02:27:12;;;;;;;;;;;20.20;57.30;;;;;;6240995;23;19911;-85
2022/09/11 02:29:38;;;;;;;;;;;20.20;57.40;;;;;;6243734;22;19954;-86
2022/09/11 02:32:04;;;;;;;;;;;20.30;57.80;;;;;;6241286;23;20308;-84
2022/09/11 02:34:33;;;;;;;;;;;20.40;57.80;;;;;;6243469;22;19907;-92
2022/09/11 02:36:58;;;;;;;;;;;20.50;58.00;;;;;;6247194;22;20410;-89
2022/09/11 02:39:36;;;;;;;;;;;20.50;58.00;;;;;;6245682;22;19915;-92
2022/09/11 02:42:20;;;;;;;;;;;20.50;58.10;;;;;;6244276;23;19930;-87
2022/09/11 02:44:56;;;;;;;;;;;20.60;58.60;;;;;;6245625;22;19916;-92
2022/09/11 02:47:24;;;;;;;;;;;20.60;58.70;;;;;;6241621;23;19907;-92
2022/09/11 02:49:58;;;;;;;;;;;20.60;58.80;;;;;;6244761;22;20267;-88
2022/09/11 02:52:31;;;;;;;;;;;20.70;58.70;;;;;;6244114;22;19919;-88
2022/09/11 02:55:03;;;;;;;;;;;20.80;58.50;;;;;;6244275;22;20395;-89
2022/09/11 02:57:30;;;;;;;;;;;20.80;58.20;;;;;;6242922;23;19934;-85
2022/09/11 02:59:59;;;;;;;;;;;20.90;58.00;;;;;;6245092;22;20261;-85
2022/09/11 03:02:26;;;;;;;;;;;21.00;57.90;;;;;;6241018;23;20221;-87
2022/09/11 03:04:52;;;;;;;;;;;21.10;57.80;;;;;;6246090;22;20314;-85
2022/09/11 03:07:17;;;;;;;;;;;21.10;57.70;;;;;;6243417;23;19908;-91
2022/09/11 03:09:42;;;;;;;;;;;21.20;57.60;;;;;;6243608;22;19931;-87
2022/09/11 03:12:09;;;;;;;;;;;21.20;57.50;;;;;;6242413;23;19911;-84
2022/09/11 03:14:34;;;;;;;;;;;21.30;57.40;;;;;;6243803;22;19959;-85
2022/09/11 03:17:00;;;;;;;;;;;21.30;57.30;;;;;;6240809;23;20231;-88
2022/09/11 03:19:27;;;;;;;;;;;21.30;57.30;;;;;;6239481;22;19920;-87
2022/09/11 03:21:52;;;;;;;;;;;21.30;57.30;;;;;;6242333;22;19907;-87
2022/09/11 03:24:18;;;;;;;;;;;21.30;57.30;;;;;;6240928;22;20116;-86
2022/09/11 03:26:43;;;;;;;;;;;21.30;57.30;;;;;;6242751;23;19970;-87
2022/09/11 03:29:09;;;;;;;;;;;21.40;57.30;;;;;;6241553;22;19904;-86
2022/09/11 03:31:34;;;;;;;;;;;21.40;57.20;;;;;;6242453;23;19935;-88
2022/09/11 03:34:00;;;;;;;;;;;21.40;57.20;;;;;;6241020;22;19910;-88
2022/09/11 03:36:25;;;;;;;;;;;21.40;57.40;;;;;;6243325;23;19911;-88
2022/09/11 03:38:51;;;;;;;;;;;21.50;57.30;;;;;;6241132;22;19986;-91
2022/09/11 03:41:17;;;;;;;;;;;21.50;57.30;;;;;;6243766;22;19918;-91
2022/09/11 03:43:42;;;;;;;;;;;21.50;57.20;;;;;;6240841;22;19951;-84
2022/09/11 03:46:08;;;;;;;;;;;21.50;57.20;;;;;;6240494;23;19997;-85
2022/09/11 03:48:34;;;;;;;;;;;21.60;57.10;;;;;;6241583;22;19907;-92
2022/09/11 03:50:59;;;;;;;;;;;21.60;57.10;;;;;;6242807;23;19992;-87
2022/09/11 03:53:25;;;;;;;;;;;21.60;57.10;;;;;;6242818;22;19912;-88
2022/09/11 03:55:51;;;;;;;;;;;21.70;57.10;;;;;;6245047;23;20212;-85
2022/09/11 03:58:19;;;;;;;;;;;21.60;57.10;;;;;;6243490;22;20058;-88
2022/09/11 04:00:46;;;;;;;;;;;21.60;57.30;;;;;;6246575;22;20226;-87
2022/09/11 04:03:13;;;;;;;;;;;21.60;57.30;;;;;;6242483;22;20440;-86
2022/09/11 04:05:38;;;;;;;;;;;21.60;57.40;;;;;;6242705;23;20368;-86
2022/09/11 04:08:05;;;;;;;;;;;21.60;57.40;;;;;;6246764;22;19934;-91
2022/09/11 04:10:31;;;;;;;;;;;21.60;57.50;;;;;;6245821;23;19903;-85
2022/09/11 04:12:56;;;;;;;;;;;21.60;57.50;;;;;;6245463;22;19922;-84
2022/09/11 04:15:22;;;;;;;;;;;21.60;57.30;;;;;;6245534;23;20220;-85
2022/09/11 04:17:48;;;;;;;;;;;21.60;57.40;;;;;;6243496;22;20302;-86
2022/09/11 04:20:13;;;;;;;;;;;21.60;57.40;;;;;;6244063;23;19926;-88
2022/09/11 04:22:39;;;;;;;;;;;21.70;57.40;;;;;;6243384;22;19958;-87
2022/09/11 04:25:05;;;;;;;;;;;21.60;57.40;;;;;;6246530;23;19912;-89
2022/09/11 04:27:32;;;;;;;;;;;21.60;57.40;;;;;;6243555;23;19914;-85
2022/09/11 04:29:57;;;;;;;;;;;21.60;57.40;;;;;;6242124;22;20346;-88
2022/09/11 04:32:23;;;;;;;;;;;21.60;57.40;;;;;;6245078;23;19956;-91
2022/09/11 04:34:48;;;;;;;;;;;21.60;57.40;;;;;;6244537;22;19912;-91
2022/09/11 04:37:15;;;;;;;;;;;21.70;57.50;;;;;;6244763;23;19912;-91
2022/09/11 04:39:41;;;;;;;;;;;21.70;57.60;;;;;;6242638;22;20280;-88
2022/09/11 04:42:07;;;;;;;;;;;21.60;57.50;;;;;;6247451;22;19915;-90
2022/09/11 04:44:33;;;;;;;;;;;21.60;57.50;;;;;;6243441;22;19966;-86
2022/09/11 04:46:58;;;;;;;;;;;21.60;57.60;;;;;;6244556;23;19978;-91
2022/09/11 04:49:23;;;;;;;;;;;21.60;57.60;;;;;;6246109;22;19998;-86
2022/09/11 04:51:49;;;;;;;;;;;21.60;57.60;;;;;;6244194;23;19915;-86
2022/09/11 04:54:16;;;;;;;;;;;21.60;57.60;;;;;;6242584;22;20312;-91
2022/09/11 04:56:42;;;;;;;;;;;21.70;57.70;;;;;;6244660;22;19979;-90
2022/09/11 04:59:16;;;;;;;;;;;21.70;57.60;;;;;;6244310;22;19931;-88
2022/09/11 05:01:42;;;;;;;;;;;21.70;57.60;;;;;;6242552;23;19914;-85
2022/09/11 05:04:12;;;;;;;;;;;21.70;57.60;;;;;;6244154;22;20316;-88
2022/09/11 05:06:37;;;;;;;;;;;21.70;57.60;;;;;;6244889;22;19911;-88
2022/09/11 05:09:03;;;;;;;;;;;21.70;57.70;;;;;;6246119;22;19910;-86
2022/09/11 05:11:29;;;;;;;;;;;21.70;57.70;;;;;;6244480;22;19911;-86
2022/09/11 05:13:58;;;;;;;;;;;21.70;57.70;;;;;;6241813;22;19915;-88
2022/09/11 05:16:26;;;;;;;;;;;21.70;57.60;;;;;;6242764;23;19919;-88
2022/09/11 05:18:52;;;;;;;;;;;21.80;57.60;;;;;;6245863;22;20014;-90
2022/09/11 05:21:18;;;;;;;;;;;21.80;57.60;;;;;;6243438;23;19915;-89
2022/09/11 05:23:46;;;;;;;;;;;21.80;57.50;;;;;;6244378;22;19915;-88
2022/09/11 05:26:15;;;;;;;;;;;21.80;57.50;;;;;;6241402;23;19908;-88
2022/09/11 05:28:41;;;;;;;;;;;21.80;57.40;;;;;;6243660;22;19950;-88
2022/09/11 05:31:11;;;;;;;;;;;21.80;57.50;;;;;;6244990;23;19959;-86
2022/09/11 05:33:36;;;;;;;;;;;21.80;57.50;;;;;;6246404;22;19912;-87
2022/09/11 05:36:03;;;;;;;;;;;21.80;57.40;;;;;;6244604;23;19911;-86
2022/09/11 05:38:29;;;;;;;;;;;21.90;57.40;;;;;;6244225;22;19915;-91
2022/09/11 05:40:54;;;;;;;;;;;21.90;57.40;;;;;;6241975;23;19974;-88
2022/09/11 05:43:20;;;;;;;;;;;21.90;57.30;;;;;;6244519;22;19927;-88
2022/09/11 05:45:52;;;;;;;;;;;22.00;57.30;;;;;;6244445;23;19911;-84
2022/09/11 05:48:18;;;;;;;;;;;22.00;57.30;;;;;;6244669;22;19916;-89
2022/09/11 05:50:50;;;;;;;;;;;22.00;57.40;;;;;;6250219;23;19907;-85
2022/09/11 05:53:16;;;;;;;;;;;22.00;57.30;;;;;;6246426;22;19912;-90
2022/09/11 05:55:41;;;;;;;;;;;22.00;57.30;;;;;;6242592;23;19910;-89
2022/09/11 05:58:07;;;;;;;;;;;22.00;57.20;;;;;;6244452;22;19912;-92
2022/09/11 06:00:32;;;;;;;;;;;22.00;57.20;;;;;;6244078;22;19908;-87
2022/09/11 06:02:58;;;;;;;;;;;22.00;57.20;;;;;;6244421;22;19923;-85
2022/09/11 06:05:23;;;;;;;;;;;22.10;57.20;;;;;;6243642;23;20448;-87
2022/09/11 06:07:50;;;;;;;;;;;22.10;57.30;;;;;;6245939;22;20298;-85
2022/09/11 06:10:16;;;;;;;;;;;22.10;57.20;;;;;;6247821;23;20278;-86
2022/09/11 06:12:41;;;;;;;;;;;22.20;57.20;;;;;;6243945;22;19912;-88
2022/09/11 06:15:07;;;;;;;;;;;22.20;57.20;;;;;;6241379;23;19911;-85
2022/09/11 06:17:32;;;;;;;;;;;22.20;57.10;;;;;;6241642;23;19911;-88
2022/09/11 06:19:58;;;;;;;;;;;22.20;57.20;;;;;;6243689;22;19956;-85
2022/09/11 06:22:24;;;;;;;;;;;22.30;57.10;;;;;;6242469;23;19946;-85
2022/09/11 06:24:49;;;;;;;;;;;22.30;57.10;;;;;;6244449;22;19994;-92
2022/09/11 06:27:17;;;;;;;;;;;22.30;57.00;;;;;;6246753;23;20213;-88
2022/09/11 06:29:43;;;;;;;;;;;22.30;56.90;;;;;;6241884;22;19907;-87
2022/09/11 06:32:09;;;;;;;;;;;22.30;56.90;;;;;;6243691;22;19915;-88
2022/09/11 06:34:36;;;;;;;;;;;22.30;56.90;;;;;;6267482;22;19962;-88
2022/09/11 06:37:02;;;;;;;;;;;22.30;57.00;;;;;;6242699;23;19912;-91
2022/09/11 06:39:27;;;;;;;;;;;22.30;57.00;;;;;;6268573;22;19990;-85
2022/09/11 06:41:53;;;;;;;;;;;22.30;57.00;;;;;;6248276;23;20279;-88
2022/09/11 06:44:18;;;;;;;;;;;22.30;57.00;;;;;;6244135;22;19919;-88
2022/09/11 06:46:44;;;;;;;;;;;22.30;57.00;;;;;;6243668;22;19912;-90
2022/09/11 06:49:10;;;;;;;;;;;22.30;57.00;;;;;;6245091;22;19950;-87
2022/09/11 06:51:38;;;;;;;;;;;22.30;56.90;;;;;;6243966;23;19907;-88
2022/09/11 06:54:04;;;;;;;;;;;22.30;56.90;;;;;;6243465;22;19940;-86
2022/09/11 06:56:31;;;;;;;;;;;22.30;56.90;;;;;;6242352;23;20336;-89
2022/09/11 06:58:57;;;;;;;;;;;22.30;56.90;;;;;;6243595;22;19935;-89
2022/09/11 07:01:23;;;;;;;;;;;22.30;56.90;;;;;;6241730;23;19911;-88
2022/09/11 07:03:49;;;;;;;;;;;22.40;56.80;;;;;;6243761;22;19927;-88
2022/09/11 07:06:16;;;;;;;;;;;22.30;56.80;;;;;;6242857;23;20443;-87
2022/09/11 07:08:41;;;;;;;;;;;22.30;56.80;;;;;;6243902;22;20212;-87
2022/09/11 07:11:07;;;;;;;;;;;22.40;56.80;;;;;;6242797;22;19915;-89
2022/09/11 07:13:33;;;;;;;;;;;22.30;56.80;;;;;;6240580;22;19907;-92
2022/09/11 07:16:02;;;;;;;;;;;22.30;56.80;;;;;;6239558;23;20315;-87
2022/09/11 07:18:31;;;;;;;;;;;22.50;56.80;;;;;;6240575;22;19908;-92
2022/09/11 07:20:57;;;;;;;;;;;22.50;56.80;;;;;;6243059;23;19907;-92
2022/09/11 07:23:22;;;;;;;;;;;22.50;56.80;;;;;;6240623;22;19970;-88
2022/09/11 07:25:48;;;;;;;;;;;22.60;56.80;;;;;;6239520;23;19916;-87
2022/09/11 07:28:14;;;;;;;;;;;22.70;56.80;;;;;;6240507;22;19908;-86
2022/09/11 07:30:39;;;;;;;;;;;22.80;56.60;;;;;;6240860;23;20323;-90
2022/09/11 07:33:05;;;;;;;;;;;22.80;56.30;;;;;;6243472;22;20286;-85
2022/09/11 07:35:30;;;;;;;;;;;22.90;56.10;;;;;;6247462;23;19931;-90
2022/09/11 07:37:57;;;;;;;;;;;23.00;55.90;;;;;;6244920;22;19991;-86
2022/09/11 07:40:22;;;;;;;;;;;23.00;55.70;;;;;;6250340;22;19908;-87
2022/09/11 07:42:48;;;;;;;;;;;23.00;55.20;;;;;;6251866;22;20069;-88
2022/09/11 07:45:13;;;;;;;;;;;23.00;55.00;;;;;;6244107;23;19908;-89
2022/09/11 07:47:39;;;;;;;;;;;22.90;55.00;;;;;;6244445;22;19939;-86
2022/09/11 07:50:05;;;;;;;;;;;22.90;55.00;;;;;;6242256;23;19908;-86
2022/09/11 07:52:31;;;;;;;;;;;22.90;55.10;;;;;;6247035;23;20296;-89
2022/09/11 07:54:56;;;;;;;;;;;22.90;55.10;;;;;;6246971;22;19916;-88
2022/09/11 07:57:23;;;;;;;;;;;22.90;54.90;;;;;;6243935;23;19910;-88
2022/09/11 07:59:48;;;;;;;;;;;23.00;55.00;;;;;;6243160;22;19911;-85
2022/09/11 08:02:14;;;;;;;;;;;23.00;54.90;;;;;;6243065;23;19910;-91
2022/09/11 08:04:40;;;;;;;;;;;23.00;54.90;;;;;;6244907;22;20650;-88
2022/09/11 08:07:05;;;;;;;;;;;23.00;55.00;;;;;;6243970;23;20002;-88
2022/09/11 08:09:31;;;;;;;;;;;23.20;55.20;;;;;;6241631;22;20203;-88
2022/09/11 08:11:57;;;;;;;;;;;23.30;55.10;;;;;;6246045;23;19910;-86
2022/09/11 08:14:26;;;;;;;;;;;23.50;55.00;;;;;;6244824;22;19935;-85
2022/09/11 08:16:52;;;;;;;;;;;23.70;54.60;;;;;;6267659;22;19904;-90
2022/09/11 08:19:20;;;;;;;;;;;23.80;54.00;;;;;;6240488;22;19912;-88
2022/09/11 08:21:46;;;;;;;;;;;23.80;53.90;;;;;;6242681;23;19908;-88
2022/09/11 08:24:12;;;;;;;;;;;24.00;54.00;;;;;;6245775;22;20018;-91
2022/09/11 08:26:38;;;;;;;;;;;24.20;53.90;;;;;;6242019;23;19912;-85
2022/09/11 08:29:05;;;;;;;;;;;24.50;54.10;;;;;;6240012;22;20438;-85
2022/09/11 08:31:32;;;;;;;;;;;24.80;54.30;;;;;;6241303;23;19912;-84
2022/09/11 08:33:58;;;;;;;;;;;25.30;53.80;;;;;;6241864;22;19911;-92
2022/09/11 08:36:23;;;;;;;;;;;25.70;53.70;;;;;;6243580;23;20219;-87
2022/09/11 08:38:50;;;;;;;;;;;26.10;53.10;;;;;;6264029;22;19986;-88
2022/09/11 08:41:16;;;;;;;;;;;26.30;52.10;;;;;;6244672;23;19907;-91
2022/09/11 08:43:49;;;;;;;;;;;26.40;51.70;;;;;;6241177;22;19916;-85
2022/09/11 08:46:15;;;;;;;;;;;26.50;50.30;;;;;;6242962;22;19991;-86
2022/09/11 08:48:57;;;;;;;;;;;26.50;49.30;;;;;;6263600;22;20738;-89
2022/09/11 08:51:24;;;;;;;;;;;26.40;49.10;;;;;;6247828;23;19907;-91
2022/09/11 08:53:50;;;;;;;;;;;26.40;49.30;;;;;;6255421;22;19914;-87
2022/09/11 08:56:18;;;;;;;;;;;26.50;49.70;;;;;;6245172;23;19914;-87
2022/09/11 08:59:02;;;;;;;;;;;26.70;49.60;;;;;;6240558;22;19911;-88
2022/09/11 09:01:37;;;;;;;;;;;26.90;49.60;;;;;;6241632;23;19907;-88
2022/09/11 09:04:09;;;;;;;;;;;27.10;49.60;;;;;;6242296;22;19916;-88
2022/09/11 09:06:50;;;;;;;;;;;27.40;49.30;;;;;;6242682;22;19912;-87
2022/09/11 09:09:15;;;;;;;;;;;27.60;48.70;;;;;;6237850;22;19986;-88
2022/09/11 09:11:46;;;;;;;;;;;27.90;48.40;;;;;;6241280;23;19970;-88
2022/09/11 09:14:30;;;;;;;;;;;28.20;47.50;;;;;;6243078;22;19907;-88
2022/09/11 09:17:19;;;;;;;;;;;28.30;47.10;;;;;;6240979;23;19931;-88
2022/09/11 09:19:45;;;;;;;;;;;28.50;46.90;;;;;;6237563;22;19952;-87
2022/09/11 09:22:17;;;;;;;;;;;28.70;46.20;;;;;;6241143;23;19903;-87
2022/09/11 09:24:47;;;;;;;;;;;28.70;45.50;;;;;;6246989;22;20395;-92
2022/09/11 09:27:22;;;;;;;;;;;28.70;45.30;;;;;;6245068;23;19904;-86
2022/09/11 09:29:50;;;;;;;;;;;28.80;45.00;;;;;;6239153;22;19912;-88
2022/09/11 09:32:22;;;;;;;;;;;28.90;44.90;;;;;;6241315;23;19939;-88
2022/09/11 09:34:49;;;;;;;;;;;29.00;44.60;;;;;;6243593;22;20345;-85
2022/09/11 09:37:22;;;;;;;;;;;29.20;44.30;;;;;;6242232;23;20307;-88
2022/09/11 09:39:51;;;;;;;;;;;29.30;43.80;;;;;;6237828;22;19914;-91
2022/09/11 09:42:23;;;;;;;;;;;29.40;43.30;;;;;;6243507;22;20283;-90
2022/09/11 09:44:57;;;;;;;;;;;29.50;43.30;;;;;;6240141;22;19915;-89
2022/09/11 09:47:22;;;;;;;;;;;29.60;42.00;;;;;;6238722;23;19935;-92
2022/09/11 09:49:48;;;;;;;;;;;29.40;41.90;;;;;;6238837;22;19907;-92
2022/09/11 09:52:18;;;;;;;;;;;29.30;42.20;;;;;;6241562;22;19912;-91
2022/09/11 09:54:51;;;;;;;;;;;29.30;41.90;;;;;;6239905;22;19940;-85
2022/09/11 09:57:18;;;;;;;;;;;29.10;40.80;;;;;;6242333;22;19982;-92
2022/09/11 09:59:46;;;;;;;;;;;28.90;41.20;;;;;;6234502;22;19942;-88
2022/09/11 10:02:12;;;;;;;;;;;28.80;41.70;;;;;;6240583;22;19907;-91
2022/09/11 10:04:37;;;;;;;;;;;28.80;41.50;;;;;;6236320;22;19986;-85
2022/09/11 10:07:08;;;;;;;;;;;28.80;41.60;;;;;;6234017;23;19908;-87
2022/09/11 10:09:34;;;;;;;;;;;28.80;41.40;;;;;;6235845;22;19943;-85
2022/09/11 10:12:05;;;;;;;;;;;28.80;41.80;;;;;;6237465;23;19929;-88
2022/09/11 10:14:40;;;;;;;;;;;28.90;41.80;;;;;;6261040;22;20426;-87
2022/09/11 10:17:17;;;;;;;;;;;28.90;41.10;;;;;;6236220;23;20042;-86
2022/09/11 10:19:43;;;;;;;;;;;29.10;41.40;;;;;;6243600;22;20243;-87
2022/09/11 10:22:19;;;;;;;;;;;29.30;41.50;;;;;;6243457;22;20006;-86
2022/09/11 10:24:51;;;;;;;;;;;29.70;41.30;;;;;;6236874;22;20410;-89
2022/09/11 10:27:17;;;;;;;;;;;30.00;40.50;;;;;;6238159;23;20488;-85
2022/09/11 10:29:49;;;;;;;;;;;30.00;39.70;;;;;;6238972;22;19930;-86
2022/09/11 10:32:15;;;;;;;;;;;29.90;39.60;;;;;;6238184;23;19970;-88
2022/09/11 10:34:42;;;;;;;;;;;29.80;39.40;;;;;;6240372;22;19915;-88
2022/09/11 10:37:12;;;;;;;;;;;29.60;39.00;;;;;;6238336;23;19923;-85
2022/09/11 10:39:39;;;;;;;;;;;29.50;39.00;;;;;;6238023;22;19908;-92
2022/09/11 10:42:15;;;;;;;;;;;29.50;39.40;;;;;;6244053;23;19919;-88
2022/09/11 10:44:42;;;;;;;;;;;29.70;39.60;;;;;;6237729;22;19951;-88
2022/09/11 10:47:16;;;;;;;;;;;29.80;39.60;;;;;;6238951;22;19915;-88
2022/09/11 10:49:42;;;;;;;;;;;30.00;39.60;;;;;;6238654;22;19908;-87
2022/09/11 10:52:07;;;;;;;;;;;30.10;39.60;;;;;;6238256;22;19915;-85
2022/09/11 10:54:33;;;;;;;;;;;30.30;39.40;;;;;;6239703;22;19985;-92
2022/09/11 10:57:19;;;;;;;;;;;30.30;38.80;;;;;;6237482;23;20038;-84
2022/09/11 11:00:01;;;;;;;;;;;30.40;38.80;;;;;;6235528;22;19908;-86
2022/09/11 11:02:31;;;;;;;;;;;30.50;38.80;;;;;;6237779;23;19970;-89
2022/09/11 11:05:00;;;;;;;;;;;30.60;37.70;;;;;;6238026;22;19942;-91
2022/09/11 11:07:47;;;;;;;;;;;30.60;37.60;;;;;;6237297;23;20059;-88
2022/09/11 11:10:31;;;;;;;;;;;30.60;38.00;;;;;;6239605;23;19907;-93
2022/09/11 11:13:15;;;;;;;;;;;30.60;38.00;;;;;;6241759;22;19916;-88
2022/09/11 11:15:43;;;;;;;;;;;30.60;38.00;;;;;;6240526;23;20071;-91
2022/09/11 11:18:28;;;;;;;;;;;30.60;37.50;;;;;;6241092;22;19919;-92
2022/09/11 11:21:08;;;;;;;;;;;30.60;37.80;;;;;;6242562;23;19942;-86
2022/09/11 11:24:11;;;;;;;;;;;30.60;37.60;;;;;;6238422;22;20266;-93
2022/09/11 11:26:39;;;;;;;;;;;30.60;37.10;;;;;;6149008;23;19944;-88
2022/09/11 11:29:23;;;;;;;;;;;30.50;37.00;;;;;;6224408;22;19918;-84
2022/09/11 11:31:51;;;;;;;;;;;30.50;37.20;;;;;;6240177;23;19918;-86
2022/09/11 11:34:35;;;;;;;;;;;30.60;37.30;;;;;;6241883;22;19911;-86
2022/09/11 11:37:14;;;;;;;;;;;30.80;37.20;;;;;;6239111;23;19919;-87
2022/09/11 11:39:47;;;;;;;;;;;30.90;36.80;;;;;;6240473;22;19918;-87
2022/09/11 11:42:16;;;;;;;;;;;31.00;36.60;;;;;;6241734;23;19916;-88
2022/09/11 11:45:03;;;;;;;;;;;31.10;36.80;;;;;;6239086;22;19916;-91
2022/09/11 11:47:30;;;;;;;;;;;31.30;36.60;;;;;;6239405;23;20359;-85
2022/09/11 11:50:02;;;;;;;;;;;31.70;36.60;;;;;;6239413;22;19933;-92
2022/09/11 11:52:34;;;;;;;;;;;31.80;36.20;;;;;;6238945;23;20013;-88
2022/09/11 11:55:16;;;;;;;;;;;31.80;35.50;;;;;;6242453;22;19915;-88
2022/09/11 11:57:47;;;;;;;;;;;31.70;35.40;;;;;;6240821;22;19912;-86
2022/09/11 12:00:15;;;;;;;;;;;31.50;35.50;;;;;;6240940;23;19959;-92
2022/09/11 12:02:51;;;;;;;;;;;31.30;35.50;;;;;;6241001;22;19912;-87
2022/09/11 12:05:30;;;;;;;;;;;31.20;35.60;;;;;;6244314;23;19919;-85
2022/09/11 12:07:56;;;;;;;;;;;31.10;35.90;;;;;;6241318;22;19937;-88
2022/09/11 12:10:36;;;;;;;;;;;31.20;36.20;;;;;;6240567;22;19911;-92
2022/09/11 12:13:05;;;;;;;;;;;31.80;36.20;;;;;;6240889;22;19982;-88
2022/09/11 12:15:33;;;;;;;;;;;32.90;35.40;;;;;;6242687;23;20347;-89
2022/09/11 12:18:00;;;;;;;;;;;33.90;34.30;;;;;;6239898;22;20332;-85
2022/09/11 12:20:42;;;;;;;;;;;34.80;32.50;;;;;;6242303;22;19999;-91
2022/09/11 12:23:26;;;;;;;;;;;35.20;32.10;;;;;;6240900;22;19920;-88
2022/09/11 12:26:02;;;;;;;;;;;35.90;30.90;;;;;;6241739;23;19946;-89
2022/09/11 12:28:28;;;;;;;;;;;36.70;30.10;;;;;;6244981;22;19990;-87
2022/09/11 12:31:07;;;;;;;;;;;37.30;29.30;;;;;;6241733;23;19938;-85
2022/09/11 12:33:49;;;;;;;;;;;37.20;28.60;;;;;;6243528;22;19969;-89
2022/09/11 12:36:22;;;;;;;;;;;36.50;29.20;;;;;;6241539;23;19907;-91
2022/09/11 12:38:49;;;;;;;;;;;35.80;29.80;;;;;;6245001;22;19914;-91
2022/09/11 12:41:34;;;;;;;;;;;35.20;29.30;;;;;;6242026;23;20307;-87
2022/09/11 12:44:00;;;;;;;;;;;35.00;29.80;;;;;;6242610;22;19991;-83
2022/09/11 12:46:26;;;;;;;;;;;35.30;29.50;;;;;;6243459;23;19926;-84
2022/09/11 12:48:52;;;;;;;;;;;35.60;29.40;;;;;;6240157;22;19914;-86
2022/09/11 12:51:20;;;;;;;;;;;36.10;29.40;;;;;;6241873;23;19908;-87
2022/09/11 12:53:49;;;;;;;;;;;36.60;29.10;;;;;;6240729;22;19907;-89
2022/09/11 12:56:24;;;;;;;;;;;37.20;28.70;;;;;;6244870;23;19908;-91
2022/09/11 12:58:55;;;;;;;;;;;37.50;28.00;;;;;;6255364;22;19907;-91
2022/09/11 13:01:23;;;;;;;;;;;37.80;27.30;;;;;;6245104;22;19908;-87
2022/09/11 13:03:52;;;;;;;;;;;38.10;27.20;;;;;;6240866;22;19935;-88
2022/09/11 13:06:18;;;;;;;;;;;38.20;26.00;;;;;;6241451;22;19911;-88
2022/09/11 13:08:49;;;;;;;;;;;38.20;25.70;;;;;;6242917;22;20082;-92
2022/09/11 13:11:33;;;;;;;;;;;38.10;25.10;;;;;;6239976;23;19908;-88
2022/09/11 13:13:59;;;;;;;;;;;37.80;24.50;;;;;;6241844;22;20386;-89
2022/09/11 13:16:30;;;;;;;;;;;37.50;24.90;;;;;;6239895;23;19954;-92
2022/09/11 13:18:57;;;;;;;;;;;37.30;25.50;;;;;;6242485;22;19977;-92
2022/09/11 13:21:24;;;;;;;;;;;37.30;25.60;;;;;;6241245;23;19907;-87
2022/09/11 13:23:50;;;;;;;;;;;37.30;26.20;;;;;;6242245;22;19915;-86
2022/09/11 13:26:27;;;;;;;;;;;37.30;26.30;;;;;;6242276;23;20343;-86
2022/09/11 13:28:55;;;;;;;;;;;37.00;26.30;;;;;;6240574;22;20012;-88
2022/09/11 13:31:27;;;;;;;;;;;36.70;26.40;;;;;;6239605;22;19907;-87
2022/09/11 13:33:53;;;;;;;;;;;36.40;26.90;;;;;;6238387;22;20444;-87
2022/09/11 13:36:21;;;;;;;;;;;36.10;27.10;;;;;;6238569;22;19943;-87
2022/09/11 13:38:56;;;;;;;;;;;35.70;27.40;;;;;;6238337;22;19914;-89
2022/09/11 13:41:24;;;;;;;;;;;35.30;27.70;;;;;;6238365;22;19955;-88
2022/09/11 13:43:52;;;;;;;;;;;34.80;28.00;;;;;;6238171;22;19920;-87
2022/09/11 13:46:20;;;;;;;;;;;34.40;28.30;;;;;;6238113;22;20238;-87
2022/09/11 13:48:47;;;;;;;;;;;34.10;28.70;;;;;;6237215;22;19915;-92
2022/09/11 13:51:15;;;;;;;;;;;33.80;28.80;;;;;;6240829;23;19907;-87
2022/09/11 13:53:42;;;;;;;;;;;33.60;29.00;;;;;;6239129;22;19908;-89
2022/09/11 13:56:37;;;;;;;;;;;33.30;29.50;;;;;;6236882;23;20321;-88
2022/09/11 13:59:21;;;;;;;;;;;33.20;29.80;;;;;;6156747;22;19908;-88
2022/09/11 14:01:54;;;;;;;;;;;33.00;30.20;;;;;;6241105;23;19916;-88
2022/09/11 14:04:20;;;;;;;;;;;32.90;30.40;;;;;;6238015;22;19971;-92
2022/09/11 14:06:46;;;;;;;;;;;32.80;30.50;;;;;;6239223;23;19915;-89
2022/09/11 14:09:17;;;;;;;;;;;32.60;30.20;;;;;;6237701;22;20319;-88
2022/09/11 14:11:43;;;;;;;;;;;32.30;30.40;;;;;;6239222;22;20259;-87
2022/09/11 14:14:10;;;;;;;;;;;32.00;30.80;;;;;;6239110;22;19907;-89
2022/09/11 14:16:57;;;;;;;;;;;31.70;31.10;;;;;;6240976;23;20410;-88
2022/09/11 14:19:25;;;;;;;;;;;31.30;31.30;;;;;;6239700;22;19956;-91
2022/09/11 14:21:51;;;;;;;;;;;31.10;31.60;;;;;;6239348;23;19938;-88
2022/09/11 14:24:31;;;;;;;;;;;30.80;32.00;;;;;;6238499;22;20332;-88
2022/09/11 14:27:00;;;;;;;;;;;30.60;32.40;;;;;;6236567;23;20000;-87